ADDS METAR Data INFO
IDs: Format: Raw Decoded Include TAF

Data at: 0225 UTC 14 Dec 2017

KCWC 140215Z AUTO 00000KT 10SM CLR 10/M05 A2994 RMK AO2 T01001048
KCWC 140155Z AUTO 34004KT 10SM CLR 12/M06 A2993 RMK AO2 T01241059
KCWC 140135Z AUTO 00000KT 10SM CLR 10/M06 A2993 RMK AO2 T00991057
KCWC 140115Z AUTO 00000KT 10SM CLR 12/M05 A2993 RMK AO2 T01151055
KCWC 140055Z AUTO 00000KT 10SM CLR 12/M05 A2992 RMK AO2 T01221053
KCWC 140035Z AUTO 00000KT 10SM CLR 13/M06 A2991 RMK AO2 T01341063
KCWC 140015Z AUTO 00000KT 10SM CLR 15/M07 A2991 RMK AO2 T01451067
KCWC 132355Z AUTO 00000KT 10SM CLR 16/M07 A2992 RMK AO2 T01591070 10195 20157
KCWC 132335Z AUTO 00000KT 10SM CLR 17/M07 A2991 RMK AO2 T01661075
KCWC 132315Z AUTO 00000KT 10SM CLR 18/M07 A2992 RMK AO2 T01801075
KCWC 132255Z AUTO 34004KT 10SM CLR 19/M08 A2992 RMK AO2 T01861080
KCWC 132235Z AUTO 00000KT 10SM CLR 19/M08 A2992 RMK AO2 T01901079
KCWC 132215Z AUTO 00000KT 10SM CLR 19/M08 A2992 RMK AO2 T01901079
KCWC 132155Z AUTO 34003KT 10SM CLR 19/M08 A2992 RMK AO2 T01911080
KCWC 132135Z AUTO 33005KT 10SM CLR 19/M08 A2993 RMK AO2 T01911082
KCWC 132115Z AUTO 36004KT 10SM CLR 19/M08 A2993 RMK AO2 T01891083
KCWC 132055Z AUTO 34006KT 10SM CLR 19/M08 A2993 RMK AO2 T01911083
KCWC 132035Z AUTO 28005KT 10SM CLR 19/M08 A2993 RMK AO2 T01931083
KCWC 132015Z AUTO 33005KT 10SM CLR 19/M08 A2994 RMK AO2 T01911084
KCWC 131955Z AUTO 26004KT 10SM CLR 19/M08 A2994 RMK AO2 T01851083
KCWC 131935Z AUTO 34007KT 10SM CLR 18/M08 A2995 RMK AO2 T01831081
KCWC 131915Z AUTO 29005KT 10SM CLR 18/M08 A2996 RMK AO2 T01771083
KCWC 131855Z AUTO 26004KT 10SM CLR 17/M08 A2998 RMK AO2 T01721076
KCWC 131835Z AUTO 32005KT 10SM CLR 17/M08 A2999 RMK AO2 T01681079
KCWC 131815Z AUTO 29005KT 10SM CLR 17/M08 A3000 RMK AO2 T01651078
KCWC 131755Z AUTO 30006KT 10SM CLR 16/M08 A3001 RMK AO2 T01611080 10162 20035
KCWC 131735Z AUTO 30006G15KT 10SM CLR 16/M08 A3001 RMK AO2 T01601080
KCWC 131715Z AUTO 28009G14KT 10SM CLR 16/M08 A3002 RMK AO2 T01601076
KCWC 131655Z AUTO 25010G17KT 10SM CLR 15/M07 A3002 RMK AO2 T01501069
KCWC 131635Z AUTO 24011G17KT 10SM CLR 14/M07 A3002 RMK AO2 T01401070
KCWC 131615Z AUTO 24008KT 10SM CLR 12/M06 A3003 RMK AO2 T01181064
KCWC 131555Z AUTO 25007KT 10SM CLR 10/M06 A3003 RMK AO2 T01011065
KCWC 131535Z AUTO 26010G14KT 10SM CLR 09/M07 A3003 RMK AO2 T00911068
KCWC 131515Z AUTO 24008KT 200V260 10SM CLR 08/M07 A3003 RMK AO2 T00811067
KCWC 131455Z AUTO 25006KT 10SM CLR 07/M07 A3003 RMK AO2 T00701069
KCWC 131435Z AUTO 25006KT 10SM CLR 06/M07 A3003 RMK AO2 T00581068
KCWC 131415Z AUTO 24004KT 10SM CLR 04/M07 A3003 RMK AO2 T00441066
KCWC 131355Z AUTO 24004KT 10SM CLR 04/M07 A3003 RMK AO2 T00401067
KCWC 131335Z AUTO 22005KT 10SM CLR 04/M07 A3003 RMK AO2 T00421068
KCWC 131315Z AUTO 22007KT 10SM CLR 05/M07 A3003 RMK AO2 T00471067
KCWC 131255Z AUTO 23006KT 10SM CLR 04/M07 A3003 RMK AO2 T00441066
KCWC 131235Z AUTO 22006KT 10SM CLR 04/M06 A3003 RMK AO2 T00381065
KCWC 131215Z AUTO 22006KT 10SM CLR 04/M06 A3004 RMK AO2 T00351061
KCWC 131155Z AUTO 22005KT 10SM CLR 04/M06 A3004 RMK AO2 T00421062 10065 20040
KCWC 131135Z AUTO 23005KT 10SM CLR 04/M06 A3004 RMK AO2 T00431064
KCWC 131115Z AUTO 22005KT 10SM CLR 04/M06 A3005 RMK AO2 T00411060
KCWC 131055Z AUTO 23005KT 10SM CLR 04/M06 A3005 RMK AO2 T00411060
KCWC 131035Z AUTO 23004KT 10SM CLR 04/M06 A3005 RMK AO2 T00411059
KCWC 131015Z AUTO 24004KT 10SM CLR 05/M06 A3006 RMK AO2 T00451057
KCWC 130955Z AUTO 24003KT 10SM CLR 05/M05 A3007 RMK AO2 T00461055
KCWC 130935Z AUTO 24003KT 10SM CLR 05/M05 A3008 RMK AO2 T00461051
KCWC 130915Z AUTO 25003KT 10SM CLR 05/M05 A3008 RMK AO2 T00511050
KCWC 130855Z AUTO 23005KT 10SM CLR 05/M05 A3009 RMK AO2 T00521050
KCWC 130835Z AUTO 23006KT 10SM CLR 06/M05 A3010 RMK AO2 T00551050
KCWC 130815Z AUTO 23006KT 10SM CLR 06/M05 A3010 RMK AO2 T00551050
KCWC 130755Z AUTO 23005KT 10SM CLR 05/M05 A3010 RMK AO2 T00541050
KCWC 130735Z AUTO 23008KT 10SM CLR 06/M05 A3010 RMK AO2 T00581051
KCWC 130715Z AUTO 22007KT 180V240 10SM CLR 06/M05 A3011 RMK AO2 T00601050
KCWC 130655Z AUTO 22009KT 150V230 10SM CLR 06/M05 A3012 RMK AO2 T00601047
KCWC 130635Z AUTO 22008KT 160V230 10SM CLR 06/M04 A3013 RMK AO2 T00581045
KCWC 130615Z AUTO 22009KT 150V230 10SM CLR 06/M04 A3014 RMK AO2 T00611044
KCWC 130555Z AUTO 22008KT 150V230 10SM CLR 07/M04 A3015 RMK AO2 T00651044 10110 20052 401280045
KCWC 130535Z AUTO 22008KT 10SM CLR 06/M04 A3016 RMK AO2 T00621041
KCWC 130515Z AUTO 22009KT 10SM CLR 07/M04 A3017 RMK AO2 T00671040
KCWC 130455Z AUTO 22008KT 10SM CLR 08/M04 A3018 RMK AO2 T00751038
KCWC 130435Z AUTO 20005KT 10SM CLR 07/M04 A3019 RMK AO2 T00701037
KCWC 130415Z AUTO 20005KT 10SM CLR 07/M04 A3020 RMK AO2 T00701036
KCWC 130355Z AUTO 21006KT 10SM CLR 07/M03 A3021 RMK AO2 T00721035
KCWC 130335Z AUTO 21006KT 10SM CLR 08/M03 A3022 RMK AO2 T00751032
KCWC 130315Z AUTO 21006KT 10SM CLR 08/M03 A3023 RMK AO2 T00751034
KCWC 130255Z AUTO 20005KT 10SM CLR 07/M03 A3024 RMK AO2 T00691032
KCWC 130235Z AUTO 21004KT 10SM CLR 08/M03 A3025 RMK AO2 T00761031
KCWC 130215Z AUTO 22003KT 10SM CLR 08/M03 A3025 RMK AO2 T00761032
KCWC 130155Z AUTO 22003KT 10SM CLR 08/M03 A3026 RMK AO2 T00751031
KCWC 130135Z AUTO 22003KT 10SM CLR 08/M03 A3027 RMK AO2 T00751031
KCWC 130115Z AUTO 22004KT 10SM CLR 08/M03 A3027 RMK AO2 T00821027
KCWC 130055Z AUTO 22003KT 10SM CLR 08/M03 A3028 RMK AO2 T00831029
KCWC 130035Z AUTO 00000KT 10SM CLR 08/M03 A3028 RMK AO2 T00841029
KCWC 130015Z AUTO 00000KT 10SM CLR 10/M03 A3028 RMK AO2 T01021030
KCWC 122355Z AUTO 28005KT 10SM CLR 11/M03 A3029 RMK AO2 T01111033 10128 20092
KCWC 122335Z AUTO 28008KT 10SM CLR 12/M03 A3029 RMK AO2 T01171035
KCWC 122315Z AUTO 29007KT 10SM CLR 12/M03 A3030 RMK AO2 T01231032
KCWC 122255Z AUTO 30006KT 10SM CLR 13/M04 A3031 RMK AO2 T01251036
KCWC 122235Z AUTO 32008KT 300V020 10SM CLR 13/M04 A3031 RMK AO2 T01251036
KCWC 122215Z AUTO 33005KT 10SM CLR 13/M03 A3032 RMK AO2 T01271035
KCWC 122155Z AUTO 31006KT 10SM CLR 13/M04 A3033 RMK AO2 T01261037
KCWC 122135Z AUTO 33006KT 10SM CLR 13/M04 A3034 RMK AO2 T01271036
KCWC 122115Z AUTO 01009KT 10SM CLR 12/M03 A3035 RMK AO2 T01241035
KCWC 122055Z AUTO 35008KT 310V020 10SM CLR 12/M03 A3036 RMK AO2 T01211035
KCWC 122035Z AUTO 35009KT 300V010 10SM CLR 12/M04 A3037 RMK AO2 T01171036
KCWC 122015Z AUTO 02006KT 10SM CLR 11/M04 A3038 RMK AO2 T01131036
KCWC 121955Z AUTO 31006KT 300V360 10SM CLR 11/M04 A3040 RMK AO2 T01131036
KCWC 121935Z AUTO 36005KT 10SM CLR 11/M03 A3041 RMK AO2 T01101031
KCWC 121915Z AUTO 36008KT 10SM CLR 11/M03 A3043 RMK AO2 T01051032
KCWC 121855Z AUTO 35004KT 10SM CLR 10/M03 A3044 RMK AO2 T01031032
KCWC 121835Z AUTO 01009KT 320V020 10SM CLR 10/M03 A3045 RMK AO2 T01001029
KCWC 121815Z AUTO 36009KT 10SM CLR 10/M03 A3047 RMK AO2 T00971028
KCWC 121755Z AUTO 35008G17KT 10SM CLR 09/M02 A3048 RMK AO2 T00921023 10095 20045
KCWC 121735Z AUTO 34010KT 10SM CLR 09/M02 A3049 RMK AO2 T00871022
KCWC 121715Z AUTO 35010KT 3SM HZ CLR 09/M02 A3050 RMK AO2 T00861019
KCWC 121655Z AUTO 01011G16KT 10SM CLR 08/M02 A3050 RMK AO2 T00831021
KCWC 121635Z AUTO 36013G16KT 10SM CLR 08/M02 A3050 RMK AO2 T00771022
KCWC 121615Z AUTO 36010KT 10SM CLR 07/M02 A3050 RMK AO2 T00721021
KCWC 121555Z AUTO 36013G18KT 10SM CLR 07/M02 A3050 RMK AO2 T00691022
KCWC 121535Z AUTO 35010KT 10SM CLR 07/M02 A3049 RMK AO2 T00651023
KCWC 121515Z AUTO 36011G15KT 10SM CLR 06/M02 A3049 RMK AO2 T00591023
KCWC 121455Z AUTO 35009KT 10SM CLR 06/M02 A3048 RMK AO2 T00551023
KCWC 121435Z AUTO 34008KT 10SM CLR 05/M02 A3047 RMK AO2 T00501025